createdAt,value
2022-12-25T00:03:18.203Z,100878.56
2022-12-25T00:08:20.436Z,100908.53
2022-12-25T00:13:22.618Z,100899.25
2022-12-25T00:18:25.067Z,100901.06
2022-12-25T00:23:27.898Z,100894.19
2022-12-25T00:28:30.482Z,100910.44
2022-12-25T00:33:35.766Z,100913.09
2022-12-25T00:38:39.812Z,100916.66
2022-12-25T00:43:42.329Z,100932.75
2022-12-25T00:48:47.598Z,100921.53
2022-12-25T00:53:49.736Z,100929.88
2022-12-25T00:58:51.892Z,100942.34
2022-12-25T01:03:55.007Z,100930.12
2022-12-25T01:09:17.827Z,100942.75
2022-12-25T01:14:19.929Z,100944.75
2022-12-25T01:19:22.066Z,100950.31
2022-12-25T01:24:24.265Z,100956.19
2022-12-25T01:29:26.444Z,100964.31
2022-12-25T01:34:28.796Z,100958.56
2022-12-25T01:39:31.494Z,100978.78
2022-12-25T01:44:36.371Z,100981.09
2022-12-25T01:49:40.870Z,101000.53
2022-12-25T01:54:52.727Z,100990.09
2022-12-25T01:59:57.701Z,100964.12
2022-12-25T02:05:08.442Z,100973.13
2022-12-25T02:10:12.912Z,100986.56
2022-12-25T02:15:20.847Z,100972.37
2022-12-25T02:20:55.904Z,100972.97
2022-12-25T02:26:35.544Z,100973.66
2022-12-25T02:31:59.429Z,100976.13
2022-12-25T02:37:12.502Z,100986.37
2022-12-25T02:42:45.412Z,100994.69
2022-12-25T02:48:06.175Z,100990.50
2022-12-25T02:53:45.491Z,100999.31
2022-12-25T02:59:07.386Z,101001.62
2022-12-25T03:04:32.112Z,100982.19
2022-12-25T03:10:00.852Z,101010.06
2022-12-25T03:15:24.549Z,101007.16
2022-12-25T03:20:45.677Z,101029.69
2022-12-25T03:26:06.510Z,101043.28
2022-12-25T03:31:21.501Z,101035.50
2022-12-25T03:37:00.034Z,101031.72
2022-12-25T03:42:24.287Z,101046.47
2022-12-25T03:47:51.958Z,101040.63
2022-12-25T03:53:15.037Z,101046.22
2022-12-25T03:58:41.167Z,101038.25
2022-12-25T04:04:02.303Z,101059.69
2022-12-25T04:09:23.315Z,101072.97
2022-12-25T04:14:44.216Z,101062.25
2022-12-25T04:20:04.799Z,101050.37
2022-12-25T04:25:26.061Z,101056.22
2022-12-25T04:31:03.503Z,101063.00
2022-12-25T04:36:12.526Z,101054.44
2022-12-25T04:41:14.872Z,101056.00
2022-12-25T04:46:17.052Z,101050.75
2022-12-25T04:51:21.695Z,101040.66
2022-12-25T04:56:23.905Z,101041.84
2022-12-25T05:01:26.161Z,101058.34
2022-12-25T05:06:28.452Z,101057.09
2022-12-25T05:11:30.693Z,101055.69
2022-12-25T05:16:32.853Z,101073.56
2022-12-25T05:21:35.049Z,101079.84
2022-12-25T05:26:37.178Z,101081.66
2022-12-25T05:31:39.377Z,101083.78
2022-12-25T05:36:41.561Z,101073.87
2022-12-25T05:41:43.783Z,101086.44
2022-12-25T05:46:46.051Z,101093.09
2022-12-25T05:51:48.313Z,101093.38
2022-12-25T05:56:50.560Z,101093.34
2022-12-25T06:01:52.765Z,101108.66
2022-12-25T06:06:54.950Z,101091.25
2022-12-25T06:11:57.138Z,101107.50
2022-12-25T06:16:59.330Z,101093.75
2022-12-25T06:22:01.582Z,101111.69
2022-12-25T06:27:03.877Z,101102.72
2022-12-25T06:32:06.094Z,101102.06
2022-12-25T06:37:08.360Z,101115.06
2022-12-25T06:42:10.544Z,101126.75
2022-12-25T06:47:13.435Z,101117.75
2022-12-25T06:52:15.604Z,101118.31
2022-12-25T06:57:19.104Z,101116.56
2022-12-25T07:02:23.363Z,101146.88
2022-12-25T07:07:25.645Z,101146.88
2022-12-25T07:12:27.901Z,101148.94
2022-12-25T07:17:30.045Z,101162.44
2022-12-25T07:22:32.348Z,101176.16
2022-12-25T07:27:34.594Z,101178.50
2022-12-25T07:32:36.747Z,101196.50
2022-12-25T07:37:39.214Z,101196.25
2022-12-25T07:42:41.342Z,101201.72
2022-12-25T07:47:43.755Z,101212.41
2022-12-25T07:52:47.070Z,101217.03
2022-12-25T07:57:49.273Z,101202.44
2022-12-25T08:02:51.693Z,101228.44
2022-12-25T08:07:57.689Z,101228.97
2022-12-25T08:12:59.953Z,101228.41
2022-12-25T08:18:02.142Z,101223.19
2022-12-25T08:23:05.096Z,101231.91
2022-12-25T08:28:07.390Z,101224.41
2022-12-25T08:33:10.053Z,101227.59
2022-12-25T08:38:12.537Z,101244.91
2022-12-25T08:43:14.745Z,101248.62
2022-12-25T08:48:16.937Z,101244.22
2022-12-25T08:53:20.269Z,101259.47
2022-12-25T08:58:25.634Z,101250.75
2022-12-25T09:03:28.108Z,101257.03
2022-12-25T09:08:30.381Z,101255.19
2022-12-25T09:13:32.919Z,101260.84
2022-12-25T09:18:35.618Z,101248.19
2022-12-25T09:23:40.824Z,101252.22
2022-12-25T09:28:50.176Z,101254.41
2022-12-25T09:33:58.087Z,101250.09
2022-12-25T09:39:00.317Z,101253.22
2022-12-25T09:44:15.244Z,101250.75
2022-12-25T09:49:49.262Z,101258.59
2022-12-25T09:55:12.475Z,101250.91
2022-12-25T10:00:24.041Z,101247.09
2022-12-25T10:05:58.643Z,101243.00
2022-12-25T10:11:06.673Z,101228.84
2022-12-25T10:16:52.331Z,101227.03
2022-12-25T10:22:03.203Z,101208.06
2022-12-25T10:27:30.013Z,101225.81
2022-12-25T10:32:33.195Z,101220.69
2022-12-25T10:37:35.433Z,101212.72
2022-12-25T10:42:43.984Z,101218.66
2022-12-25T10:47:58.558Z,101211.16
2022-12-25T10:58:44.153Z,101204.50
2022-12-25T11:03:53.760Z,101190.44
2022-12-25T11:09:08.655Z,101180.28
2022-12-25T11:14:29.290Z,101161.84
2022-12-25T11:19:41.793Z,101157.44
2022-12-25T11:24:45.285Z,101152.59
2022-12-25T11:29:53.955Z,101154.81
2022-12-25T11:34:57.994Z,101132.09
2022-12-25T11:40:00.385Z,101120.41
2022-12-25T11:45:17.529Z,101113.72
2022-12-25T11:50:25.833Z,101129.97
2022-12-25T11:55:33.660Z,101128.34
2022-12-25T12:00:36.846Z,101120.12
2022-12-25T12:05:45.404Z,101122.59
2022-12-25T12:10:56.518Z,101117.59
2022-12-25T12:15:58.902Z,101125.31
2022-12-25T12:21:16.486Z,101112.13
2022-12-25T12:26:30.757Z,101121.63
2022-12-25T12:31:45.708Z,101127.09
2022-12-25T12:36:49.981Z,101135.94
2022-12-25T12:41:52.871Z,101118.44
2022-12-25T12:46:57.347Z,101134.94
2022-12-25T12:52:22.515Z,101131.44
2022-12-25T12:57:32.754Z,101135.09
2022-12-25T13:02:41.042Z,101141.75
2022-12-25T13:07:58.273Z,101130.69
2022-12-25T13:13:12.580Z,101139.94
2022-12-25T13:18:15.416Z,101156.19
2022-12-25T13:23:30.332Z,101151.34
2022-12-25T13:28:35.451Z,101146.22
2022-12-25T13:33:38.461Z,101142.84
2022-12-25T13:38:48.024Z,101147.16
2022-12-25T13:43:58.580Z,101158.06
2022-12-25T13:49:01.506Z,101145.06
2022-12-25T13:54:07.395Z,101150.34
2022-12-25T13:59:16.315Z,101146.63
2022-12-25T14:04:23.695Z,101158.25
2022-12-25T14:09:26.115Z,101159.37
2022-12-25T14:14:29.727Z,101151.63
2022-12-25T14:19:34.318Z,101156.72
2022-12-25T14:24:39.514Z,101156.06
2022-12-25T14:29:44.727Z,101155.78
2022-12-25T14:34:50.980Z,101174.25
2022-12-25T14:40:05.334Z,101184.41
2022-12-25T14:45:30.708Z,101177.19
2022-12-25T14:50:41.112Z,101184.53
2022-12-25T14:55:48.208Z,101181.25
2022-12-25T15:01:01.903Z,101181.53
2022-12-25T15:06:06.438Z,101191.47
2022-12-25T15:11:09.036Z,101192.53
2022-12-25T15:16:22.376Z,101180.47
2022-12-25T15:21:44.590Z,101185.41
2022-12-25T15:26:47.013Z,101195.41
2022-12-25T15:31:49.928Z,101192.91
2022-12-25T15:36:53.008Z,101187.06
2022-12-25T15:47:37.293Z,101196.88
2022-12-25T15:52:39.590Z,101209.28
2022-12-25T15:57:43.730Z,101186.94
2022-12-25T16:02:48.954Z,101198.84
2022-12-25T16:07:51.418Z,101179.69
2022-12-25T16:12:53.685Z,101202.25
2022-12-25T16:17:58.320Z,101198.22
2022-12-25T16:23:00.564Z,101195.72
2022-12-25T16:28:03.789Z,101194.75
2022-12-25T16:33:06.857Z,101190.66
2022-12-25T16:38:09.239Z,101189.25
2022-12-25T16:43:11.478Z,101177.72
2022-12-25T16:48:13.978Z,101169.44
2022-12-25T16:53:16.479Z,101168.84
2022-12-25T16:58:18.681Z,101169.06
2022-12-25T17:03:21.571Z,101170.94
2022-12-25T17:08:23.789Z,101168.41
2022-12-25T17:13:26.054Z,101166.44
2022-12-25T17:18:29.415Z,101163.56
2022-12-25T17:23:31.640Z,101169.06
2022-12-25T17:28:34.861Z,101169.09
2022-12-25T17:33:38.834Z,101169.03
2022-12-25T17:38:41.412Z,101132.31
2022-12-25T17:43:45.810Z,101146.50
2022-12-25T17:48:50.275Z,101139.44
2022-12-25T17:53:56.685Z,101135.31
2022-12-25T17:59:03.606Z,101142.47
2022-12-25T18:04:07.182Z,101149.97
2022-12-25T18:09:11.347Z,101153.84
2022-12-25T18:14:18.358Z,101163.19
2022-12-25T18:19:20.925Z,101149.31
2022-12-25T18:24:23.148Z,101158.50
2022-12-25T18:29:25.745Z,101155.47
2022-12-25T18:34:28.078Z,101135.97
2022-12-25T18:39:31.948Z,101135.91
2022-12-25T18:44:34.583Z,101142.47
2022-12-25T18:49:38.405Z,101133.62
2022-12-25T18:54:41.062Z,101131.72
2022-12-25T18:59:43.544Z,101127.16
2022-12-25T19:04:45.925Z,101126.25
2022-12-25T19:09:49.091Z,101121.13
2022-12-25T19:14:51.827Z,101118.81
2022-12-25T19:19:54.144Z,101103.34
2022-12-25T19:24:59.293Z,101108.53
2022-12-25T19:30:05.496Z,101117.56
2022-12-25T19:35:08.405Z,101124.16
2022-12-25T19:40:11.580Z,101120.84
2022-12-25T19:45:14.566Z,101116.69
2022-12-25T19:50:16.900Z,101132.63
2022-12-25T19:55:20.484Z,101114.59
2022-12-25T20:00:22.790Z,101101.84
2022-12-25T20:05:24.999Z,101098.72
2022-12-25T20:10:27.382Z,101064.69
2022-12-25T20:15:29.665Z,101054.81
2022-12-25T20:20:32.285Z,101054.00
2022-12-25T20:25:44.545Z,101072.94
2022-12-25T20:30:46.899Z,101085.13
2022-12-25T20:35:50.292Z,101083.47
2022-12-25T20:46:30.965Z,101065.50
2022-12-25T20:51:33.626Z,101072.03
2022-12-25T20:56:36.917Z,101053.47
2022-12-25T21:01:39.168Z,101060.69
2022-12-25T21:06:41.599Z,101045.22
2022-12-25T21:11:43.870Z,101076.66
2022-12-25T21:16:46.278Z,101069.53
2022-12-25T21:21:51.819Z,101055.50
2022-12-25T21:26:54.106Z,101061.56
2022-12-25T21:32:14.969Z,101065.72
2022-12-25T21:37:17.464Z,101068.91
2022-12-25T21:42:19.672Z,101051.88
2022-12-25T21:47:59.688Z,101058.22
2022-12-25T21:52:52.653Z,101045.88
2022-12-25T21:58:02.351Z,101055.13
2022-12-25T22:03:35.649Z,101058.94
2022-12-25T22:09:52.083Z,101023.97
2022-12-25T22:15:35.845Z,101047.63
2022-12-25T22:20:50.501Z,101019.19
2022-12-25T22:25:53.027Z,101071.66
2022-12-25T22:31:04.851Z,101067.63
2022-12-25T22:36:57.090Z,101052.09
2022-12-25T22:42:31.951Z,101017.66
2022-12-25T22:47:36.953Z,101064.91
2022-12-25T22:53:48.296Z,101068.56
2022-12-25T22:59:01.419Z,101065.28
2022-12-25T23:04:04.270Z,101053.75
2022-12-25T23:09:08.732Z,101042.12
2022-12-25T23:14:33.271Z,101043.00
2022-12-25T23:19:54.031Z,101048.47
2022-12-25T23:25:16.056Z,101046.00
2022-12-25T23:30:18.313Z,101033.00
2022-12-25T23:35:20.582Z,101049.97
2022-12-25T23:40:22.826Z,101037.28
2022-12-25T23:45:24.942Z,101023.75
2022-12-25T23:50:27.201Z,101034.00
2022-12-25T23:55:29.345Z,101021.41
